Time;durP1;ratioP1;P1;durP2;ratioP2;P2;SDS_P1;SDS_P2;PMS_P1;PMS_P2;Temp;Humidity;BMP_temperature;BMP_pressure;BME280_temperature;BME280_humidity;BME280_pressure;Samples;Min_cycle;Max_cycle;Signal;HPM_P1;HPM_P2
2021/12/10 00:01:55;;;;;;;91.88;48.15;;;2.10;98.30;;;;;;4170176;28;20207;-83
2021/12/10 00:04:00;;;;;;;95.70;48.83;;;2.00;98.30;;;;;;4175783;28;20706;-82
2021/12/10 00:06:07;;;;;;;96.82;48.05;;;2.00;98.30;;;;;;4163935;28;20230;-83
2021/12/10 00:08:10;;;;;;;95.40;47.22;;;2.00;98.30;;;;;;4169647;28;20238;-84
2021/12/10 00:10:17;;;;;;;87.95;48.20;;;2.00;98.30;;;;;;4169227;28;20229;-82
2021/12/10 00:12:25;;;;;;;92.97;50.72;;;2.00;98.30;;;;;;4169092;28;20219;-83
2021/12/10 00:14:31;;;;;;;95.85;49.35;;;2.00;98.30;;;;;;4169559;28;20261;-82
2021/12/10 00:16:38;;;;;;;96.38;50.60;;;2.00;98.30;;;;;;4178467;28;20249;-82
2021/12/10 00:18:47;;;;;;;97.45;49.90;;;2.00;98.30;;;;;;4169055;28;20249;-82
2021/12/10 00:20:57;;;;;;;101.57;50.03;;;2.00;98.30;;;;;;4168393;28;20215;-82
2021/12/10 00:23:04;;;;;;;92.40;48.40;;;2.00;98.30;;;;;;4162328;28;20215;-82
2021/12/10 00:25:09;;;;;;;92.95;48.25;;;2.00;98.30;;;;;;4168943;28;20207;-82
2021/12/10 00:27:13;;;;;;;92.13;49.00;;;2.00;98.30;;;;;;4169118;28;20223;-82
2021/12/10 00:29:17;;;;;;;98.18;50.85;;;2.00;98.30;;;;;;4168867;28;20226;-82
2021/12/10 00:31:32;;;;;;;95.65;49.58;;;2.10;98.30;;;;;;4168592;28;20211;-82
2021/12/10 00:33:50;;;;;;;93.35;48.58;;;2.10;98.30;;;;;;4168589;28;20245;-82
2021/12/10 00:35:54;;;;;;;81.55;47.28;;;2.00;98.30;;;;;;4161940;28;20300;-82
2021/12/10 00:37:57;;;;;;;95.13;51.75;;;2.00;98.30;;;;;;4164649;28;20207;-82
2021/12/10 00:40:04;;;;;;;89.35;47.25;;;2.10;98.30;;;;;;4170192;28;20643;-82
2021/12/10 00:42:11;;;;;;;110.18;48.40;;;2.00;98.30;;;;;;4168689;28;20213;-82
2021/12/10 00:44:14;;;;;;;93.47;50.67;;;2.10;98.30;;;;;;4167110;28;20659;-82
2021/12/10 00:46:17;;;;;;;96.07;51.70;;;2.00;98.30;;;;;;4167179;28;20630;-82
2021/12/10 00:48:20;;;;;;;95.93;49.05;;;2.00;98.30;;;;;;4164141;28;20690;-83
2021/12/10 00:50:27;;;;;;;91.82;48.83;;;2.00;98.30;;;;;;4167078;28;20215;-82
2021/12/10 00:52:30;;;;;;;89.47;48.83;;;2.00;98.30;;;;;;4167203;28;20215;-82
2021/12/10 00:54:34;;;;;;;97.97;49.35;;;2.00;98.30;;;;;;4167284;28;20199;-82
2021/12/10 00:56:37;;;;;;;91.28;50.35;;;2.00;98.30;;;;;;4167324;28;20238;-82
2021/12/10 00:58:41;;;;;;;98.60;49.85;;;2.00;98.30;;;;;;4167303;28;20230;-83
2021/12/10 01:00:47;;;;;;;96.22;50.10;;;2.00;98.30;;;;;;4169463;28;20225;-82
2021/12/10 01:02:51;;;;;;;96.30;49.55;;;2.10;98.30;;;;;;4167141;28;20211;-83
2021/12/10 01:04:57;;;;;;;104.35;52.47;;;2.00;98.30;;;;;;4167450;28;20237;-82
2021/12/10 01:07:08;;;;;;;96.30;52.90;;;2.00;98.30;;;;;;4159893;28;20234;-82
2021/12/10 01:09:15;;;;;;;104.68;51.53;;;2.00;98.30;;;;;;4168190;28;20226;-82
2021/12/10 01:11:24;;;;;;;96.28;49.80;;;2.10;98.30;;;;;;4175423;28;20301;-83
2021/12/10 01:13:32;;;;;;;88.90;48.90;;;2.20;98.30;;;;;;4166268;28;20218;-83
2021/12/10 01:16:05;;;;;;;94.75;50.55;;;2.10;98.30;;;;;;4166560;28;20202;-83
2021/12/10 01:25:33;;;;;;;99.43;50.67;;;2.00;98.30;;;;;;4166468;28;20233;-83
2021/12/10 01:27:42;;;;;;;95.18;48.58;;;2.00;98.30;;;;;;4166596;28;20203;-82
2021/12/10 01:29:47;;;;;;;97.93;49.95;;;2.00;98.30;;;;;;4171519;28;20222;-83
2021/12/10 01:31:52;;;;;;;101.28;49.53;;;2.10;98.30;;;;;;4165296;28;20214;-82
2021/12/10 01:33:55;;;;;;;95.53;48.55;;;2.10;98.30;;;;;;4167003;28;20288;-82
2021/12/10 01:35:59;;;;;;;86.57;46.85;;;2.10;98.30;;;;;;4166678;28;20246;-82
2021/12/10 01:38:07;;;;;;;92.50;48.28;;;2.10;98.30;;;;;;4176777;28;20206;-82
2021/12/10 01:40:12;;;;;;;95.85;48.08;;;2.00;98.30;;;;;;4166199;28;20226;-82
2021/12/10 01:42:28;;;;;;;92.15;49.05;;;2.00;98.30;;;;;;4167576;28;20225;-81
2021/12/10 01:44:36;;;;;;;93.25;50.42;;;2.00;98.30;;;;;;4172486;28;20203;-82
2021/12/10 01:46:40;;;;;;;93.95;48.83;;;2.00;98.30;;;;;;4160583;28;20234;-81
2021/12/10 01:48:46;;;;;;;96.88;50.47;;;2.10;98.30;;;;;;4165636;28;20223;-83
2021/12/10 01:50:52;;;;;;;92.32;46.75;;;2.10;98.30;;;;;;4165932;28;20225;-82
2021/12/10 01:52:57;;;;;;;89.15;48.78;;;2.10;98.30;;;;;;4163887;28;20663;-83
2021/12/10 01:55:04;;;;;;;90.38;48.58;;;2.10;98.30;;;;;;4166119;28;20203;-82
2021/12/10 01:57:09;;;;;;;91.00;48.00;;;2.10;98.30;;;;;;4165794;28;20245;-83
2021/12/10 01:59:16;;;;;;;86.95;46.50;;;2.00;98.30;;;;;;4159638;28;20207;-82
2021/12/10 02:01:23;;;;;;;101.38;50.45;;;2.10;98.30;;;;;;4164559;28;20242;-82
2021/12/10 02:03:28;;;;;;;85.72;46.67;;;2.00;98.30;;;;;;4164873;28;20206;-82
2021/12/10 02:05:31;;;;;;;86.10;45.92;;;2.10;98.30;;;;;;4163591;28;20211;-82
2021/12/10 02:07:34;;;;;;;84.43;46.83;;;2.10;98.30;;;;;;4165832;28;20237;-82
2021/12/10 02:09:37;;;;;;;89.22;46.15;;;2.10;98.30;;;;;;4165229;28;20223;-82
2021/12/10 02:11:43;;;;;;;88.72;47.75;;;2.10;98.30;;;;;;4165892;28;20206;-82
2021/12/10 02:13:47;;;;;;;95.25;49.75;;;2.10;98.30;;;;;;4165963;28;20241;-81
2021/12/10 02:15:50;;;;;;;96.63;48.60;;;2.10;98.30;;;;;;4162255;28;20218;-82
2021/12/10 02:17:56;;;;;;;95.72;49.15;;;2.20;98.30;;;;;;4158307;28;20222;-81
2021/12/10 02:20:05;;;;;;;87.93;48.17;;;2.20;98.30;;;;;;4168855;28;20227;-82
2021/12/10 02:22:10;;;;;;;88.72;47.22;;;2.20;98.30;;;;;;4168715;28;20220;-82
2021/12/10 02:24:13;;;;;;;85.63;44.58;;;2.20;98.30;;;;;;4168141;28;20214;-82
2021/12/10 02:26:16;;;;;;;88.40;46.20;;;2.20;98.30;;;;;;4166713;28;20231;-82
2021/12/10 02:28:20;;;;;;;85.75;45.17;;;2.10;98.30;;;;;;4169040;28;20213;-82
2021/12/10 02:30:25;;;;;;;88.05;45.60;;;2.10;98.30;;;;;;4168816;28;20226;-82
2021/12/10 02:32:29;;;;;;;91.57;48.55;;;2.10;98.30;;;;;;4173096;28;20237;-82
2021/12/10 02:34:32;;;;;;;93.30;49.13;;;2.10;98.30;;;;;;4166133;28;20210;-82
2021/12/10 02:36:39;;;;;;;86.15;45.65;;;2.20;98.30;;;;;;4167557;28;20690;-83
2021/12/10 02:38:47;;;;;;;89.20;45.90;;;2.10;98.30;;;;;;4167411;28;20213;-82
2021/12/10 02:40:52;;;;;;;81.03;44.22;;;2.10;98.30;;;;;;4163515;28;20194;-83
2021/12/10 02:42:58;;;;;;;90.22;45.88;;;2.10;98.30;;;;;;4166963;28;20717;-81
2021/12/10 02:45:01;;;;;;;88.82;46.33;;;2.10;98.30;;;;;;4166479;28;20238;-83
2021/12/10 02:47:05;;;;;;;76.90;44.15;;;2.20;98.30;;;;;;4167123;28;20238;-83
2021/12/10 02:49:11;;;;;;;88.47;46.35;;;2.10;98.30;;;;;;4175713;28;20678;-83
2021/12/10 02:51:14;;;;;;;84.57;47.03;;;2.10;98.30;;;;;;4171093;28;20203;-82
2021/12/10 02:53:23;;;;;;;86.78;46.10;;;2.20;98.30;;;;;;4166007;28;20199;-82
2021/12/10 02:55:30;;;;;;;92.43;47.75;;;2.10;98.30;;;;;;4167266;28;20212;-82
2021/12/10 02:57:33;;;;;;;91.65;45.70;;;2.10;98.30;;;;;;4166834;28;20246;-82
2021/12/10 02:59:37;;;;;;;89.18;44.75;;;2.10;98.30;;;;;;4167035;28;20559;-82
2021/12/10 03:01:44;;;;;;;88.72;47.20;;;2.10;98.30;;;;;;4167168;28;20217;-82
2021/12/10 03:03:47;;;;;;;85.60;46.08;;;2.30;98.30;;;;;;4171715;28;20286;-82
2021/12/10 03:05:51;;;;;;;93.10;47.47;;;2.20;98.30;;;;;;4166611;28;20233;-82
2021/12/10 03:07:55;;;;;;;87.90;45.72;;;2.20;98.30;;;;;;4171599;28;20219;-82
2021/12/10 03:09:58;;;;;;;85.43;46.28;;;2.10;98.30;;;;;;4170483;28;20353;-83
2021/12/10 03:12:03;;;;;;;84.90;46.90;;;2.10;98.30;;;;;;4168368;28;20285;-82
2021/12/10 03:14:10;;;;;;;90.35;48.13;;;2.10;98.30;;;;;;4167795;28;20210;-82
2021/12/10 03:16:14;;;;;;;92.55;45.30;;;2.10;98.30;;;;;;4166298;28;20665;-82
2021/12/10 03:18:18;;;;;;;92.15;47.20;;;2.20;98.30;;;;;;4171505;28;20214;-83
2021/12/10 03:20:24;;;;;;;84.15;46.63;;;2.10;98.30;;;;;;4164556;28;20199;-82
2021/12/10 03:22:27;;;;;;;88.85;48.72;;;2.20;98.30;;;;;;4162317;28;20198;-82
2021/12/10 03:24:30;;;;;;;87.20;47.00;;;2.20;98.30;;;;;;4166703;28;20759;-82
2021/12/10 03:26:34;;;;;;;82.03;46.40;;;2.10;98.30;;;;;;4166424;28;20310;-82
2021/12/10 03:28:39;;;;;;;84.43;46.55;;;2.10;98.30;;;;;;4166599;28;20713;-83
2021/12/10 03:30:50;;;;;;;82.22;44.30;;;2.10;98.30;;;;;;4165310;28;20214;-83
2021/12/10 03:32:54;;;;;;;81.47;44.35;;;2.10;98.30;;;;;;4164769;28;20225;-83
2021/12/10 03:34:58;;;;;;;75.05;45.00;;;2.10;98.30;;;;;;4167399;28;20706;-83
2021/12/10 03:37:02;;;;;;;80.80;42.70;;;2.10;98.30;;;;;;4174932;28;20255;-82
2021/12/10 03:39:06;;;;;;;87.88;46.90;;;2.00;98.30;;;;;;4171657;28;20845;-82
2021/12/10 03:41:11;;;;;;;81.15;44.58;;;2.00;98.30;;;;;;4170148;28;20213;-82
2021/12/10 03:43:15;;;;;;;86.25;47.00;;;2.00;98.30;;;;;;4170382;28;20214;-82
2021/12/10 03:45:19;;;;;;;85.88;45.33;;;2.00;98.30;;;;;;4170950;28;20225;-82
2021/12/10 03:47:22;;;;;;;94.45;47.92;;;2.10;98.30;;;;;;4172479;28;20226;-82
2021/12/10 03:49:26;;;;;;;77.10;45.63;;;2.00;98.30;;;;;;4171917;28;20318;-82
2021/12/10 03:51:29;;;;;;;78.60;44.75;;;2.00;98.30;;;;;;4170426;28;20222;-82
2021/12/10 03:53:32;;;;;;;89.10;44.95;;;2.10;98.30;;;;;;4168949;28;20210;-82
2021/12/10 03:55:35;;;;;;;87.25;47.13;;;2.10;98.30;;;;;;4167135;28;20206;-83
2021/12/10 03:57:38;;;;;;;88.72;45.55;;;2.00;98.30;;;;;;4169890;28;20198;-83
2021/12/10 03:59:42;;;;;;;84.80;44.58;;;2.10;98.30;;;;;;4179536;28;20194;-82
2021/12/10 04:01:48;;;;;;;86.70;46.83;;;2.10;98.30;;;;;;4174214;28;20586;-83
2021/12/10 04:03:53;;;;;;;82.20;45.50;;;2.10;98.30;;;;;;4161700;28;20659;-83
2021/12/10 04:05:57;;;;;;;89.75;45.03;;;2.10;98.30;;;;;;4167634;28;20230;-83
2021/12/10 04:08:00;;;;;;;94.82;47.03;;;2.10;98.30;;;;;;4170184;28;20228;-82
2021/12/10 04:10:04;;;;;;;90.38;46.55;;;2.10;98.30;;;;;;4163094;28;20221;-82
2021/12/10 04:12:10;;;;;;;79.43;44.90;;;2.10;98.30;;;;;;4169788;28;20238;-84
2021/12/10 04:14:13;;;;;;;79.97;44.05;;;2.10;98.30;;;;;;4168257;28;20667;-84
2021/12/10 04:16:18;;;;;;;74.32;44.75;;;2.00;98.30;;;;;;4169734;28;20237;-83
2021/12/10 04:18:23;;;;;;;67.65;42.17;;;2.00;98.30;;;;;;4170627;28;20301;-83
2021/12/10 04:20:28;;;;;;;77.97;44.25;;;2.00;98.30;;;;;;4167490;28;20210;-83
2021/12/10 04:22:32;;;;;;;76.45;42.58;;;2.00;98.30;;;;;;4167412;28;20210;-83
2021/12/10 04:24:38;;;;;;;81.25;42.60;;;2.00;98.30;;;;;;4168908;28;20901;-83
2021/12/10 04:26:42;;;;;;;79.47;41.95;;;2.00;98.30;;;;;;4170240;28;20242;-83
2021/12/10 04:28:45;;;;;;;78.13;44.03;;;2.10;98.30;;;;;;4178669;28;20211;-83
2021/12/10 04:30:50;;;;;;;84.65;43.13;;;2.10;98.30;;;;;;4169411;28;20230;-83
2021/12/10 04:32:53;;;;;;;80.63;44.55;;;2.10;98.30;;;;;;4168684;28;20220;-83
2021/12/10 04:34:58;;;;;;;72.45;40.60;;;2.10;98.30;;;;;;4170533;28;20218;-82
2021/12/10 04:37:04;;;;;;;81.93;43.72;;;2.10;98.30;;;;;;4171087;28;20234;-83
2021/12/10 04:39:08;;;;;;;88.82;45.45;;;2.10;98.30;;;;;;4171083;28;20213;-83
2021/12/10 04:41:12;;;;;;;77.93;42.60;;;2.10;98.30;;;;;;4177394;28;20207;-84
2021/12/10 04:43:16;;;;;;;79.85;43.63;;;2.00;98.30;;;;;;4173396;28;20210;-82
2021/12/10 04:45:19;;;;;;;80.28;45.63;;;2.00;98.30;;;;;;4170001;28;20217;-82
2021/12/10 04:47:22;;;;;;;88.15;46.17;;;2.00;98.30;;;;;;4169687;28;20244;-83
2021/12/10 04:49:26;;;;;;;69.05;42.33;;;2.00;98.30;;;;;;4169178;28;20210;-83
2021/12/10 04:51:34;;;;;;;79.80;42.00;;;2.00;98.30;;;;;;4169567;28;20318;-83
2021/12/10 04:53:37;;;;;;;71.13;42.33;;;2.00;98.30;;;;;;4162624;28;20654;-83
2021/12/10 04:55:41;;;;;;;76.38;43.55;;;2.00;98.30;;;;;;4165967;28;20203;-83
2021/12/10 04:57:45;;;;;;;82.03;43.45;;;2.00;98.30;;;;;;4171047;28;20206;-82
2021/12/10 04:59:48;;;;;;;81.93;42.53;;;2.00;98.30;;;;;;4164699;28;20285;-82
2021/12/10 05:01:54;;;;;;;72.15;41.42;;;2.00;98.30;;;;;;4170651;28;20238;-82
2021/12/10 05:03:58;;;;;;;76.47;42.58;;;2.10;98.30;;;;;;4180543;28;20238;-82
2021/12/10 05:06:03;;;;;;;73.78;43.13;;;2.10;98.30;;;;;;4177387;28;20242;-83
2021/12/10 05:08:08;;;;;;;78.53;43.67;;;2.00;98.30;;;;;;4172095;28;20203;-82
2021/12/10 05:10:13;;;;;;;70.32;42.58;;;2.00;98.30;;;;;;4170240;28;20226;-83
2021/12/10 05:12:17;;;;;;;72.80;42.00;;;2.00;98.30;;;;;;4171092;28;20223;-83
2021/12/10 05:14:21;;;;;;;72.07;41.75;;;2.00;98.30;;;;;;4176738;28;20202;-82
2021/12/10 05:16:26;;;;;;;73.30;42.38;;;2.10;98.30;;;;;;4172638;28;20238;-82
2021/12/10 05:18:33;;;;;;;75.10;41.30;;;2.00;98.30;;;;;;4182061;28;20286;-83
2021/12/10 05:20:41;;;;;;;80.20;42.90;;;2.00;98.30;;;;;;4176154;28;20210;-82
2021/12/10 05:22:46;;;;;;;79.55;42.92;;;2.20;98.30;;;;;;4169498;28;20217;-83
2021/12/10 05:24:51;;;;;;;68.60;42.58;;;2.10;98.30;;;;;;4169473;28;20214;-83
2021/12/10 05:26:55;;;;;;;74.20;42.80;;;2.10;98.30;;;;;;4169682;28;20242;-82
2021/12/10 05:28:59;;;;;;;66.90;39.13;;;2.20;98.30;;;;;;4170196;28;20203;-83
2021/12/10 05:31:02;;;;;;;71.70;39.13;;;2.20;98.30;;;;;;4151608;28;20214;-83
2021/12/10 05:33:13;;;;;;;70.40;41.17;;;2.10;98.30;;;;;;4169061;28;20211;-84
2021/12/10 05:35:17;;;;;;;72.95;41.78;;;2.10;98.30;;;;;;4172033;28;20206;-83
2021/12/10 05:37:22;;;;;;;79.65;44.67;;;2.10;98.30;;;;;;4170760;28;20238;-83
2021/12/10 05:39:26;;;;;;;68.38;40.90;;;2.10;98.30;;;;;;4169933;28;20207;-84
2021/12/10 05:41:31;;;;;;;67.63;39.53;;;2.10;98.30;;;;;;4170628;28;20203;-84
2021/12/10 05:43:35;;;;;;;67.25;37.92;;;2.10;98.30;;;;;;4167475;28;20221;-83
2021/12/10 05:45:38;;;;;;;73.88;42.67;;;2.10;98.30;;;;;;4176402;28;20208;-83
2021/12/10 05:47:41;;;;;;;64.22;39.30;;;2.10;98.30;;;;;;4173559;28;20210;-84
2021/12/10 05:49:44;;;;;;;67.68;40.28;;;2.10;98.30;;;;;;4177133;28;20721;-83
2021/12/10 05:51:48;;;;;;;70.20;39.60;;;2.20;98.30;;;;;;4166980;28;20317;-82
2021/12/10 05:53:51;;;;;;;67.10;40.55;;;2.20;98.30;;;;;;4167247;28;20214;-82
2021/12/10 05:55:55;;;;;;;67.30;38.80;;;2.20;98.30;;;;;;4175911;28;20218;-82
2021/12/10 05:58:00;;;;;;;67.93;37.70;;;2.10;98.30;;;;;;4169460;28;20214;-83
2021/12/10 06:00:05;;;;;;;74.93;43.72;;;2.10;98.30;;;;;;4166885;28;20659;-83
2021/12/10 06:02:08;;;;;;;85.80;47.83;;;2.10;98.30;;;;;;4167209;28;20209;-83
2021/12/10 06:04:11;;;;;;;70.80;41.63;;;2.10;98.30;;;;;;4166844;28;20218;-83
2021/12/10 06:06:14;;;;;;;64.38;38.90;;;2.10;98.30;;;;;;4168293;28;20313;-84
2021/12/10 06:08:18;;;;;;;75.15;41.60;;;2.10;98.30;;;;;;4168043;28;20213;-82
2021/12/10 06:10:23;;;;;;;65.30;37.88;;;2.00;98.30;;;;;;4167415;28;20207;-82
2021/12/10 06:12:26;;;;;;;66.25;39.92;;;2.00;98.30;;;;;;4171276;28;20230;-82
2021/12/10 06:14:34;;;;;;;75.57;40.55;;;2.10;98.30;;;;;;4162173;28;20206;-83
2021/12/10 06:16:37;;;;;;;70.97;38.17;;;2.10;98.30;;;;;;4163769;28;20234;-81
2021/12/10 06:18:41;;;;;;;73.85;40.03;;;2.10;98.30;;;;;;4175621;28;20213;-83
2021/12/10 06:20:48;;;;;;;73.00;41.33;;;2.00;98.30;;;;;;4166039;28;20207;-82
2021/12/10 06:22:51;;;;;;;73.32;40.05;;;2.00;98.30;;;;;;4171935;28;20564;-83
2021/12/10 06:24:54;;;;;;;79.18;44.08;;;1.90;98.30;;;;;;4164979;28;20238;-83
2021/12/10 06:26:57;;;;;;;78.70;43.80;;;1.90;98.30;;;;;;4174712;28;20226;-83
2021/12/10 06:29:01;;;;;;;75.50;43.38;;;1.90;98.30;;;;;;4168505;28;20211;-83
2021/12/10 06:31:06;;;;;;;69.65;37.97;;;1.80;98.30;;;;;;4168025;28;20214;-83
2021/12/10 06:33:12;;;;;;;76.30;41.33;;;1.90;98.30;;;;;;4164148;28;20337;-83
2021/12/10 06:35:16;;;;;;;83.90;42.60;;;1.90;98.30;;;;;;4167121;28;20225;-83
2021/12/10 06:37:19;;;;;;;74.68;42.47;;;1.80;98.30;;;;;;4165730;28;20223;-84
2021/12/10 06:39:22;;;;;;;80.05;40.88;;;1.70;98.30;;;;;;4165474;28;20217;-83
2021/12/10 06:41:32;;;;;;;68.32;38.38;;;1.70;98.30;;;;;;4165629;28;20238;-82
2021/12/10 06:43:35;;;;;;;74.70;41.20;;;1.70;98.30;;;;;;4164880;28;20217;-83
2021/12/10 06:45:41;;;;;;;72.30;39.47;;;1.70;98.30;;;;;;4164937;28;20223;-83
2021/12/10 06:47:48;;;;;;;81.13;43.42;;;1.70;98.30;;;;;;4158831;28;20265;-83
2021/12/10 06:49:51;;;;;;;88.05;46.08;;;1.70;98.30;;;;;;4156909;28;20286;-83
2021/12/10 06:51:54;;;;;;;73.55;39.92;;;1.70;98.30;;;;;;4171405;28;20214;-83
2021/12/10 06:53:57;;;;;;;70.32;42.08;;;1.70;98.30;;;;;;4169888;28;20214;-83
2021/12/10 06:56:00;;;;;;;77.43;42.03;;;1.70;98.30;;;;;;4170416;28;20238;-83
2021/12/10 06:58:09;;;;;;;72.53;41.05;;;1.70;98.30;;;;;;4169334;28;20293;-83
2021/12/10 07:00:16;;;;;;;75.28;39.97;;;1.80;98.30;;;;;;4166044;28;20217;-83
2021/12/10 07:02:20;;;;;;;74.68;41.10;;;1.70;98.30;;;;;;4165980;28;20218;-83
2021/12/10 07:04:25;;;;;;;69.60;39.65;;;1.70;98.30;;;;;;4169600;28;20305;-83
2021/12/10 07:06:30;;;;;;;78.07;42.15;;;1.80;98.30;;;;;;4163889;28;20237;-83
2021/12/10 07:08:44;;;;;;;81.85;43.15;;;1.80;98.30;;;;;;4173041;28;20265;-83
2021/12/10 07:11:23;;;;;;;72.05;40.13;;;1.70;98.30;;;;;;4171935;28;20240;-83
2021/12/10 07:13:27;;;;;;;73.50;40.72;;;1.70;98.30;;;;;;4165920;28;20251;-84
2021/12/10 07:15:38;;;;;;;83.95;40.85;;;1.70;98.30;;;;;;4168042;28;20207;-83
2021/12/10 07:35:53;;;;;;;75.40;42.10;;;1.90;98.30;;;;;;5181272;22;20614;-82
2021/12/10 07:37:58;;;;;;;77.07;40.97;;;1.90;98.30;;;;;;5184143;22;20283;-83
2021/12/10 07:40:56;;;;;;;65.90;37.92;;;1.90;98.30;;;;;;5173830;22;20215;-82
2021/12/10 07:43:01;;;;;;;71.20;38.75;;;1.90;98.30;;;;;;5183402;22;20177;-83
2021/12/10 07:45:06;;;;;;;70.35;39.47;;;2.00;98.30;;;;;;5183218;22;20200;-84
2021/12/10 07:47:12;;;;;;;74.32;41.35;;;2.00;98.30;;;;;;5183334;22;20216;-83
2021/12/10 07:49:17;;;;;;;66.10;39.22;;;2.00;98.30;;;;;;5181961;22;20829;-83
2021/12/10 07:51:27;;;;;;;65.75;38.00;;;2.00;98.30;;;;;;5183359;22;20173;-82
2021/12/10 07:53:32;;;;;;;85.18;40.75;;;2.00;98.30;;;;;;5183348;22;20173;-82
2021/12/10 07:55:39;;;;;;;66.93;38.40;;;1.90;98.30;;;;;;5188805;22;20204;-83
2021/12/10 07:57:43;;;;;;;71.07;39.90;;;2.00;98.30;;;;;;5185757;22;20204;-83
2021/12/10 07:59:49;;;;;;;71.22;40.78;;;2.00;98.30;;;;;;5185450;22;20563;-83
2021/12/10 08:01:53;;;;;;;71.30;39.30;;;2.00;98.30;;;;;;5184048;22;20180;-83
2021/12/10 08:03:57;;;;;;;67.57;36.55;;;2.00;98.30;;;;;;5183307;22;20223;-84
2021/12/10 08:06:05;;;;;;;79.88;40.30;;;1.90;98.30;;;;;;5182229;22;20248;-83
2021/12/10 08:08:11;;;;;;;78.30;40.08;;;2.00;98.30;;;;;;5182694;22;20173;-83
2021/12/10 08:10:16;;;;;;;70.97;41.55;;;2.00;98.30;;;;;;5183595;22;20197;-83
2021/12/10 08:12:19;;;;;;;77.07;41.05;;;2.00;98.30;;;;;;5184228;22;20173;-86
2021/12/10 08:14:23;;;;;;;75.60;39.78;;;2.00;98.30;;;;;;5184083;22;20177;-83
2021/12/10 08:16:26;;;;;;;74.15;39.17;;;2.00;98.30;;;;;;5183945;22;20180;-83
2021/12/10 08:18:30;;;;;;;73.47;41.17;;;2.00;98.30;;;;;;5183730;22;20216;-83
2021/12/10 08:20:35;;;;;;;75.40;40.25;;;2.00;98.30;;;;;;5184088;22;20264;-84
2021/12/10 08:22:38;;;;;;;76.05;39.80;;;2.10;98.30;;;;;;5183380;22;20177;-82
2021/12/10 08:24:42;;;;;;;70.55;38.75;;;2.00;98.30;;;;;;5183792;22;20934;-83
2021/12/10 08:26:46;;;;;;;72.75;42.10;;;2.00;98.30;;;;;;5183719;22;20256;-83
2021/12/10 08:28:49;;;;;;;69.07;39.67;;;2.10;98.30;;;;;;5181233;22;20259;-83
2021/12/10 08:30:54;;;;;;;73.45;39.63;;;2.10;98.30;;;;;;5178260;23;20611;-83
2021/12/10 08:32:58;;;;;;;71.45;41.40;;;2.10;98.30;;;;;;5177983;23;20269;-83
2021/12/10 08:35:10;;;;;;;76.38;39.40;;;2.00;98.30;;;;;;5177315;23;20177;-83
2021/12/10 08:37:13;;;;;;;83.45;43.22;;;2.00;98.30;;;;;;5177934;23;20169;-83
2021/12/10 08:39:19;;;;;;;72.45;40.92;;;2.00;98.30;;;;;;5176820;22;20217;-83
2021/12/10 08:41:27;;;;;;;80.15;41.60;;;2.00;98.30;;;;;;5177578;23;20189;-83
2021/12/10 08:43:31;;;;;;;74.00;41.05;;;2.00;98.30;;;;;;5178215;23;20248;-82
2021/12/10 08:45:35;;;;;;;71.55;41.50;;;2.00;98.30;;;;;;5178202;23;20184;-83
2021/12/10 08:47:38;;;;;;;68.65;40.35;;;2.10;98.30;;;;;;5177514;23;20174;-83
2021/12/10 08:49:42;;;;;;;76.45;41.08;;;2.00;98.30;;;;;;5177106;22;20202;-83
2021/12/10 08:51:50;;;;;;;69.57;40.60;;;2.00;98.30;;;;;;5177231;23;20178;-83
2021/12/10 08:53:54;;;;;;;75.78;40.10;;;2.00;98.30;;;;;;5177794;23;20177;-83
2021/12/10 08:55:59;;;;;;;77.57;40.20;;;2.00;98.30;;;;;;5177476;23;20178;-83
2021/12/10 08:58:07;;;;;;;69.60;39.85;;;2.10;98.30;;;;;;5177538;23;20650;-84
2021/12/10 09:00:12;;;;;;;74.82;41.92;;;2.10;98.30;;;;;;5177945;22;20251;-82
2021/12/10 09:02:17;;;;;;;73.63;39.50;;;2.20;98.30;;;;;;5177092;23;20182;-82
2021/12/10 09:04:22;;;;;;;70.95;38.90;;;2.20;98.30;;;;;;5177972;23;20184;-83
2021/12/10 09:06:29;;;;;;;73.20;38.35;;;2.20;98.30;;;;;;5178655;23;20208;-83
2021/12/10 09:08:32;;;;;;;65.18;38.00;;;2.20;98.30;;;;;;5177024;22;20177;-83
2021/12/10 09:10:40;;;;;;;70.30;37.80;;;2.10;98.30;;;;;;5178123;23;20185;-84
2021/12/10 09:12:44;;;;;;;68.65;39.20;;;2.10;98.30;;;;;;5177885;23;20515;-84
2021/12/10 09:14:52;;;;;;;65.45;36.53;;;2.20;98.30;;;;;;5177859;23;20181;-84
2021/12/10 09:17:01;;;;;;;64.47;36.88;;;2.20;98.30;;;;;;5177781;23;20177;-82
2021/12/10 09:19:10;;;;;;;62.72;35.40;;;2.20;98.30;;;;;;5175852;22;20450;-83
2021/12/10 09:21:14;;;;;;;62.80;35.03;;;2.30;98.30;;;;;;5176699;23;20430;-82
2021/12/10 09:23:20;;;;;;;67.07;35.78;;;2.30;98.30;;;;;;5176758;23;20181;-83
2021/12/10 09:25:30;;;;;;;57.03;33.85;;;2.30;98.30;;;;;;5177312;23;20222;-83
2021/12/10 09:27:36;;;;;;;57.42;35.10;;;2.30;98.30;;;;;;5177451;23;20178;-82
2021/12/10 09:29:43;;;;;;;55.28;33.20;;;2.30;98.30;;;;;;5177547;22;20200;-83
2021/12/10 09:31:48;;;;;;;55.83;33.67;;;2.30;98.30;;;;;;5178503;23;20193;-83
2021/12/10 09:33:53;;;;;;;60.65;34.13;;;2.30;98.30;;;;;;5178175;23;20197;-83
2021/12/10 09:35:56;;;;;;;52.38;31.70;;;2.40;98.30;;;;;;5177557;23;20176;-84
2021/12/10 09:38:00;;;;;;;55.70;31.77;;;2.50;98.30;;;;;;5176849;23;20201;-83
2021/12/10 09:40:05;;;;;;;58.97;33.45;;;2.50;98.30;;;;;;5177501;22;20198;-83
2021/12/10 09:42:09;;;;;;;51.50;31.88;;;2.50;98.30;;;;;;5177443;23;20197;-83
2021/12/10 09:44:14;;;;;;;52.22;32.25;;;2.50;98.30;;;;;;5177281;23;20203;-83
2021/12/10 09:46:21;;;;;;;61.58;33.55;;;2.50;98.30;;;;;;5177481;23;20184;-83
2021/12/10 09:48:26;;;;;;;50.10;29.75;;;2.50;98.30;;;;;;5176420;22;20533;-83
2021/12/10 09:50:33;;;;;;;53.55;31.08;;;2.50;98.30;;;;;;5176995;23;20178;-83
2021/12/10 09:52:39;;;;;;;48.78;30.48;;;2.60;98.30;;;;;;5176942;23;20256;-83
2021/12/10 09:54:45;;;;;;;54.10;29.80;;;2.60;98.30;;;;;;5177949;23;20178;-83
2021/12/10 09:56:54;;;;;;;51.42;31.75;;;2.60;98.30;;;;;;5177323;23;20169;-86
2021/12/10 09:59:00;;;;;;;54.97;30.10;;;2.50;98.30;;;;;;5175729;22;20205;-84
2021/12/10 10:05:26;;;;;;;46.63;28.95;;;2.60;98.30;;;;;;5008959;23;20382;-83
2021/12/10 10:08:05;;;;;;;45.45;30.40;;;2.60;98.30;;;;;;5126302;23;20489;-83
2021/12/10 10:17:55;;;;;;;47.85;28.25;;;2.60;98.30;;;;;;5031887;23;20182;-83
2021/12/10 10:39:11;;;;;;;45.25;28.55;;;2.80;98.30;;;;;;5146587;23;20254;-82
2021/12/10 11:33:30;;;;;;;49.42;30.38;;;3.00;98.30;;;;;;4879358;24;20198;-82
2021/12/10 13:45:16;;;;;;;44.10;26.05;;;3.20;98.30;;;;;;5154972;23;20437;-82
2021/12/10 13:47:37;;;;;;;41.03;25.20;;;3.30;98.30;;;;;;5154672;23;20182;-82
2021/12/10 13:49:49;;;;;;;45.00;27.50;;;3.40;98.30;;;;;;5154663;23;20739;-83
2021/12/10 13:52:11;;;;;;;44.13;25.80;;;3.40;98.30;;;;;;5155434;23;20425;-81
2021/12/10 13:57:43;;;;;;;40.67;26.90;;;3.30;98.30;;;;;;5065676;23;20424;-82
2021/12/10 14:04:19;;;;;;;41.70;26.03;;;3.30;98.30;;;;;;5103442;23;20455;-82
2021/12/10 14:06:54;;;;;;;45.05;26.92;;;3.30;98.30;;;;;;5138547;23;20424;-83
2021/12/10 14:09:43;;;;;;;43.67;26.60;;;3.40;98.30;;;;;;5144910;23;20595;-83
2021/12/10 14:12:30;;;;;;;48.43;28.07;;;3.40;98.30;;;;;;5153010;23;20425;-82
2021/12/10 14:17:12;;;;;;;39.73;25.70;;;3.40;98.30;;;;;;5145255;23;20436;-81
2021/12/10 14:19:42;;;;;;;42.13;28.07;;;3.40;98.30;;;;;;5144097;23;20757;-82
2021/12/10 14:22:13;;;;;;;42.03;27.38;;;3.40;98.30;;;;;;5144955;23;20421;-82
2021/12/10 14:24:43;;;;;;;45.77;28.07;;;3.30;98.30;;;;;;5145905;23;20558;-82
2021/12/10 14:27:15;;;;;;;43.67;26.20;;;3.30;98.30;;;;;;5144581;23;20421;-83
2021/12/10 14:29:38;;;;;;;47.90;28.93;;;3.30;98.30;;;;;;5144104;23;20422;-83
2021/12/10 14:32:01;;;;;;;47.15;26.98;;;3.30;98.30;;;;;;5153310;23;20814;-82
2021/12/10 14:34:08;;;;;;;45.73;27.07;;;3.30;98.30;;;;;;5152282;23;20257;-82
2021/12/10 14:36:22;;;;;;;41.57;25.53;;;3.30;98.30;;;;;;5152063;23;20522;-82
2021/12/10 14:38:37;;;;;;;50.58;29.15;;;3.40;98.30;;;;;;5152659;23;20412;-82
2021/12/10 14:41:06;;;;;;;44.80;26.60;;;3.30;98.30;;;;;;5143518;23;20216;-82
2021/12/10 14:43:19;;;;;;;49.97;28.67;;;3.30;98.30;;;;;;5152910;23;20495;-83
2021/12/10 14:45:23;;;;;;;44.73;27.30;;;3.20;98.30;;;;;;5153048;23;20425;-82
2021/12/10 14:47:29;;;;;;;44.20;27.08;;;3.20;98.30;;;;;;5153169;23;20432;-82
2021/12/10 14:50:12;;;;;;;46.53;28.50;;;3.10;98.30;;;;;;5144895;23;20534;-83
2021/12/10 14:52:38;;;;;;;42.00;28.13;;;3.20;98.30;;;;;;5144339;23;20898;-83
2021/12/10 14:55:13;;;;;;;44.17;27.27;;;3.20;98.30;;;;;;5134479;23;20335;-81
2021/12/10 14:57:44;;;;;;;49.53;27.77;;;3.20;98.30;;;;;;5143760;23;20421;-82
2021/12/10 15:00:09;;;;;;;53.42;28.77;;;3.20;98.30;;;;;;5144467;23;20200;-82
2021/12/10 15:02:35;;;;;;;51.72;28.92;;;3.20;98.30;;;;;;5146434;23;20181;-84